sensor_id;sensor_type;location;lat;lon;timestamp;pressure;altitude;pressure_sealevel;temperature;humidity
43770;BME280;6597;52.218;9.882;2023-06-22T00:01:10;101072.91;;;19.01;94.39
43770;BME280;6597;52.218;9.882;2023-06-22T00:03:37;101071.59;;;18.93;94.53
43770;BME280;6597;52.218;9.882;2023-06-22T00:06:03;101072.75;;;18.89;95.28
43770;BME280;6597;52.218;9.882;2023-06-22T00:08:30;101065.72;;;18.88;95.51
43770;BME280;6597;52.218;9.882;2023-06-22T00:10:58;101070.09;;;18.89;95.45
43770;BME280;6597;52.218;9.882;2023-06-22T00:13:24;101071.16;;;18.87;95.73
43770;BME280;6597;52.218;9.882;2023-06-22T00:15:51;101079.41;;;18.82;95.65
43770;BME280;6597;52.218;9.882;2023-06-22T00:18:17;101076.28;;;18.76;96.09
43770;BME280;6597;52.218;9.882;2023-06-22T00:20:44;101083.59;;;18.72;96.80
43770;BME280;6597;52.218;9.882;2023-06-22T00:23:11;101090.94;;;18.69;97.12
43770;BME280;6597;52.218;9.882;2023-06-22T00:25:39;101093.13;;;18.62;97.57
43770;BME280;6597;52.218;9.882;2023-06-22T00:28:07;101085.41;;;18.57;98.29
43770;BME280;6597;52.218;9.882;2023-06-22T00:30:34;101093.59;;;18.54;98.92
43770;BME280;6597;52.218;9.882;2023-06-22T00:33:01;101088.34;;;18.53;99.45
43770;BME280;6597;52.218;9.882;2023-06-22T00:35:28;101086.72;;;18.50;99.54
43770;BME280;6597;52.218;9.882;2023-06-22T00:37:55;101093.84;;;18.50;99.95
43770;BME280;6597;52.218;9.882;2023-06-22T00:40:26;101091.28;;;18.48;100.00
43770;BME280;6597;52.218;9.882;2023-06-22T00:42:52;101080.28;;;18.40;100.00
43770;BME280;6597;52.218;9.882;2023-06-22T00:45:20;101078.47;;;18.41;100.00
43770;BME280;6597;52.218;9.882;2023-06-22T00:47:50;101071.16;;;18.44;100.00
43770;BME280;6597;52.218;9.882;2023-06-22T00:50:19;101066.50;;;18.48;100.00
43770;BME280;6597;52.218;9.882;2023-06-22T00:52:48;101064.81;;;18.47;100.00
43770;BME280;6597;52.218;9.882;2023-06-22T00:55:18;101063.28;;;18.43;100.00
43770;BME280;6597;52.218;9.882;2023-06-22T00:57:45;101060.81;;;18.40;100.00
43770;BME280;6597;52.218;9.882;2023-06-22T01:00:14;101058.94;;;18.42;100.00
43770;BME280;6597;52.218;9.882;2023-06-22T01:02:47;101051.34;;;18.35;100.00
43770;BME280;6597;52.218;9.882;2023-06-22T01:05:17;101051.44;;;18.34;100.00
43770;BME280;6597;52.218;9.882;2023-06-22T01:07:55;101049.06;;;18.29;100.00
43770;BME280;6597;52.218;9.882;2023-06-22T01:10:28;101051.06;;;18.26;100.00
43770;BME280;6597;52.218;9.882;2023-06-22T01:13:01;101045.84;;;18.24;100.00
43770;BME280;6597;52.218;9.882;2023-06-22T01:15:32;101045.25;;;18.19;100.00
43770;BME280;6597;52.218;9.882;2023-06-22T01:18:03;101035.88;;;18.14;100.00
43770;BME280;6597;52.218;9.882;2023-06-22T01:20:31;101036.25;;;18.08;100.00
43770;BME280;6597;52.218;9.882;2023-06-22T01:23:07;101041.19;;;17.99;100.00
43770;BME280;6597;52.218;9.882;2023-06-22T01:25:43;101042.03;;;17.86;100.00
43770;BME280;6597;52.218;9.882;2023-06-22T01:28:23;101035.63;;;17.60;100.00
43770;BME280;6597;52.218;9.882;2023-06-22T01:30:53;101029.03;;;17.51;100.00
43770;BME280;6597;52.218;9.882;2023-06-22T01:33:29;101030.75;;;17.52;100.00
43770;BME280;6597;52.218;9.882;2023-06-22T01:35:58;101046.00;;;17.49;100.00
43770;BME280;6597;52.218;9.882;2023-06-22T01:38:26;101043.25;;;17.50;100.00
43770;BME280;6597;52.218;9.882;2023-06-22T01:40:54;101037.75;;;17.53;100.00
43770;BME280;6597;52.218;9.882;2023-06-22T01:43:24;101049.94;;;17.57;100.00
43770;BME280;6597;52.218;9.882;2023-06-22T01:45:53;101042.31;;;17.51;100.00
43770;BME280;6597;52.218;9.882;2023-06-22T01:48:21;101037.38;;;17.45;100.00
43770;BME280;6597;52.218;9.882;2023-06-22T01:50:47;101039.84;;;17.48;100.00
43770;BME280;6597;52.218;9.882;2023-06-22T01:53:14;101038.63;;;17.54;100.00
43770;BME280;6597;52.218;9.882;2023-06-22T01:55:41;101037.31;;;17.61;100.00
43770;BME280;6597;52.218;9.882;2023-06-22T01:58:07;101036.72;;;17.56;100.00
43770;BME280;6597;52.218;9.882;2023-06-22T02:00:37;101033.59;;;17.49;100.00
43770;BME280;6597;52.218;9.882;2023-06-22T02:03:10;101039.56;;;17.53;100.00
43770;BME280;6597;52.218;9.882;2023-06-22T02:05:39;101035.19;;;17.52;100.00
43770;BME280;6597;52.218;9.882;2023-06-22T02:08:13;101043.59;;;17.60;100.00
43770;BME280;6597;52.218;9.882;2023-06-22T02:10:42;101044.88;;;17.53;100.00
43770;BME280;6597;52.218;9.882;2023-06-22T02:13:10;101044.69;;;17.56;100.00
43770;BME280;6597;52.218;9.882;2023-06-22T02:15:38;101040.59;;;17.50;100.00
43770;BME280;6597;52.218;9.882;2023-06-22T02:18:06;101044.97;;;17.51;100.00
43770;BME280;6597;52.218;9.882;2023-06-22T02:20:36;101050.09;;;17.54;100.00
43770;BME280;6597;52.218;9.882;2023-06-22T02:23:02;101046.84;;;17.49;100.00
43770;BME280;6597;52.218;9.882;2023-06-22T02:25:29;101044.84;;;17.38;100.00
43770;BME280;6597;52.218;9.882;2023-06-22T02:27:56;101045.28;;;17.31;100.00
43770;BME280;6597;52.218;9.882;2023-06-22T02:30:23;101043.06;;;17.23;100.00
43770;BME280;6597;52.218;9.882;2023-06-22T02:32:49;101052.91;;;17.21;100.00
43770;BME280;6597;52.218;9.882;2023-06-22T02:35:25;101047.28;;;17.27;100.00
43770;BME280;6597;52.218;9.882;2023-06-22T02:37:51;101053.63;;;17.25;100.00
43770;BME280;6597;52.218;9.882;2023-06-22T02:40:18;101062.56;;;17.22;100.00
43770;BME280;6597;52.218;9.882;2023-06-22T02:42:45;101066.91;;;17.09;100.00
43770;BME280;6597;52.218;9.882;2023-06-22T02:45:11;101069.03;;;17.02;100.00
43770;BME280;6597;52.218;9.882;2023-06-22T02:47:38;101072.47;;;17.04;100.00
43770;BME280;6597;52.218;9.882;2023-06-22T02:50:05;101077.41;;;17.10;100.00
43770;BME280;6597;52.218;9.882;2023-06-22T02:52:35;101076.41;;;16.97;100.00
43770;BME280;6597;52.218;9.882;2023-06-22T02:55:02;101081.91;;;16.94;100.00
43770;BME280;6597;52.218;9.882;2023-06-22T02:57:29;101077.53;;;16.93;100.00
43770;BME280;6597;52.218;9.882;2023-06-22T02:59:57;101084.38;;;16.97;100.00
43770;BME280;6597;52.218;9.882;2023-06-22T03:02:24;101085.81;;;17.03;100.00
43770;BME280;6597;52.218;9.882;2023-06-22T03:04:51;101087.44;;;17.05;100.00
43770;BME280;6597;52.218;9.882;2023-06-22T03:07:19;101096.06;;;17.09;100.00
43770;BME280;6597;52.218;9.882;2023-06-22T03:09:49;101093.16;;;17.14;100.00
43770;BME280;6597;52.218;9.882;2023-06-22T03:12:16;101096.75;;;17.13;100.00
43770;BME280;6597;52.218;9.882;2023-06-22T03:14:49;101091.28;;;17.16;100.00
43770;BME280;6597;52.218;9.882;2023-06-22T03:17:16;101091.84;;;17.21;100.00
43770;BME280;6597;52.218;9.882;2023-06-22T03:19:42;101091.44;;;17.28;100.00
43770;BME280;6597;52.218;9.882;2023-06-22T03:22:09;101083.13;;;17.34;100.00
43770;BME280;6597;52.218;9.882;2023-06-22T03:24:35;101087.38;;;17.37;100.00
43770;BME280;6597;52.218;9.882;2023-06-22T03:27:06;101096.13;;;17.39;100.00
43770;BME280;6597;52.218;9.882;2023-06-22T03:29:33;101098.69;;;17.40;100.00
43770;BME280;6597;52.218;9.882;2023-06-22T03:32:00;101095.47;;;17.50;100.00
43770;BME280;6597;52.218;9.882;2023-06-22T03:34:27;101095.81;;;17.59;100.00
43770;BME280;6597;52.218;9.882;2023-06-22T03:36:53;101096.59;;;17.61;100.00
43770;BME280;6597;52.218;9.882;2023-06-22T03:39:20;101097.34;;;17.63;100.00
43770;BME280;6597;52.218;9.882;2023-06-22T03:41:47;101083.66;;;17.71;100.00
43770;BME280;6597;52.218;9.882;2023-06-22T03:44:15;101088.84;;;17.72;100.00
43770;BME280;6597;52.218;9.882;2023-06-22T03:46:42;101088.19;;;17.69;100.00
43770;BME280;6597;52.218;9.882;2023-06-22T03:49:08;101082.97;;;17.67;100.00
43770;BME280;6597;52.218;9.882;2023-06-22T03:51:35;101082.78;;;17.70;100.00
43770;BME280;6597;52.218;9.882;2023-06-22T03:54:02;101079.53;;;17.65;100.00
43770;BME280;6597;52.218;9.882;2023-06-22T03:56:28;101079.81;;;17.61;100.00
43770;BME280;6597;52.218;9.882;2023-06-22T03:58:55;101082.44;;;17.61;100.00
43770;BME280;6597;52.218;9.882;2023-06-22T04:01:23;101082.53;;;17.59;100.00
43770;BME280;6597;52.218;9.882;2023-06-22T04:03:49;101078.84;;;17.62;100.00
43770;BME280;6597;52.218;9.882;2023-06-22T04:06:16;101069.84;;;17.64;100.00
43770;BME280;6597;52.218;9.882;2023-06-22T04:08:44;101069.84;;;17.64;100.00
43770;BME280;6597;52.218;9.882;2023-06-22T04:11:13;101071.75;;;17.62;100.00
43770;BME280;6597;52.218;9.882;2023-06-22T04:13:40;101063.81;;;17.47;100.00
43770;BME280;6597;52.218;9.882;2023-06-22T04:16:06;101078.00;;;17.61;100.00
43770;BME280;6597;52.218;9.882;2023-06-22T04:18:34;101073.34;;;17.65;100.00
43770;BME280;6597;52.218;9.882;2023-06-22T04:21:01;101073.88;;;17.71;100.00
43770;BME280;6597;52.218;9.882;2023-06-22T04:23:28;101081.47;;;17.78;100.00
43770;BME280;6597;52.218;9.882;2023-06-22T04:25:54;101088.03;;;17.86;100.00
43770;BME280;6597;52.218;9.882;2023-06-22T04:28:21;101088.63;;;17.91;100.00
43770;BME280;6597;52.218;9.882;2023-06-22T04:30:48;101087.31;;;17.98;100.00
43770;BME280;6597;52.218;9.882;2023-06-22T04:33:16;101083.31;;;18.06;100.00
43770;BME280;6597;52.218;9.882;2023-06-22T04:35:45;101085.69;;;18.10;100.00
43770;BME280;6597;52.218;9.882;2023-06-22T04:38:12;101086.16;;;18.17;100.00
43770;BME280;6597;52.218;9.882;2023-06-22T04:40:39;101088.81;;;18.17;100.00
43770;BME280;6597;52.218;9.882;2023-06-22T04:43:05;101091.00;;;18.10;100.00
43770;BME280;6597;52.218;9.882;2023-06-22T04:45:32;101092.25;;;18.04;100.00
43770;BME280;6597;52.218;9.882;2023-06-22T04:48:00;101083.69;;;17.99;100.00
43770;BME280;6597;52.218;9.882;2023-06-22T04:50:27;101086.53;;;17.96;100.00
43770;BME280;6597;52.218;9.882;2023-06-22T04:52:55;101077.72;;;17.96;100.00
43770;BME280;6597;52.218;9.882;2023-06-22T04:55:21;101080.84;;;18.02;100.00
43770;BME280;6597;52.218;9.882;2023-06-22T04:57:48;101073.53;;;18.06;100.00
43770;BME280;6597;52.218;9.882;2023-06-22T05:00:16;101068.41;;;18.17;100.00
43770;BME280;6597;52.218;9.882;2023-06-22T05:02:43;101064.56;;;18.23;100.00
43770;BME280;6597;52.218;9.882;2023-06-22T05:05:11;101059.34;;;18.21;100.00
43770;BME280;6597;52.218;9.882;2023-06-22T05:07:41;101076.13;;;18.22;100.00
43770;BME280;6597;52.218;9.882;2023-06-22T05:10:11;101068.06;;;18.23;100.00
43770;BME280;6597;52.218;9.882;2023-06-22T05:12:38;101068.25;;;18.34;100.00
43770;BME280;6597;52.218;9.882;2023-06-22T05:15:07;101067.16;;;18.51;100.00
43770;BME280;6597;52.218;9.882;2023-06-22T05:17:34;101059.41;;;18.62;100.00
43770;BME280;6597;52.218;9.882;2023-06-22T05:20:01;101055.50;;;18.68;100.00
43770;BME280;6597;52.218;9.882;2023-06-22T05:22:28;101062.03;;;18.77;100.00
43770;BME280;6597;52.218;9.882;2023-06-22T05:24:55;101056.31;;;18.83;100.00
43770;BME280;6597;52.218;9.882;2023-06-22T05:27:23;101059.66;;;18.86;100.00
43770;BME280;6597;52.218;9.882;2023-06-22T05:29:49;101056.78;;;18.89;100.00
43770;BME280;6597;52.218;9.882;2023-06-22T05:32:16;101055.75;;;18.92;100.00
43770;BME280;6597;52.218;9.882;2023-06-22T05:34:42;101056.19;;;18.99;100.00
43770;BME280;6597;52.218;9.882;2023-06-22T05:37:09;101059.28;;;19.05;100.00
43770;BME280;6597;52.218;9.882;2023-06-22T05:39:36;101049.72;;;19.03;100.00
43770;BME280;6597;52.218;9.882;2023-06-22T05:42:04;101060.28;;;19.17;100.00
43770;BME280;6597;52.218;9.882;2023-06-22T05:44:33;101064.47;;;19.21;100.00
43770;BME280;6597;52.218;9.882;2023-06-22T05:46:59;101066.06;;;19.23;100.00
43770;BME280;6597;52.218;9.882;2023-06-22T05:49:26;101071.53;;;19.35;100.00
43770;BME280;6597;52.218;9.882;2023-06-22T05:51:55;101067.28;;;19.45;100.00
43770;BME280;6597;52.218;9.882;2023-06-22T05:54:21;101064.53;;;19.46;100.00
43770;BME280;6597;52.218;9.882;2023-06-22T05:56:48;101065.94;;;19.52;100.00
43770;BME280;6597;52.218;9.882;2023-06-22T05:59:15;101069.94;;;19.59;100.00
43770;BME280;6597;52.218;9.882;2023-06-22T06:01:42;101064.28;;;19.64;100.00
43770;BME280;6597;52.218;9.882;2023-06-22T06:04:09;101062.69;;;19.74;100.00
43770;BME280;6597;52.218;9.882;2023-06-22T06:06:36;101062.91;;;19.83;100.00
43770;BME280;6597;52.218;9.882;2023-06-22T06:09:03;101067.50;;;19.94;100.00
43770;BME280;6597;52.218;9.882;2023-06-22T06:11:30;101073.16;;;20.02;100.00
43770;BME280;6597;52.218;9.882;2023-06-22T06:13:57;101062.50;;;20.02;100.00
43770;BME280;6597;52.218;9.882;2023-06-22T06:16:23;101062.16;;;20.07;100.00
43770;BME280;6597;52.218;9.882;2023-06-22T06:18:51;101063.16;;;20.18;100.00
43770;BME280;6597;52.218;9.882;2023-06-22T06:21:20;101055.22;;;20.30;100.00
43770;BME280;6597;52.218;9.882;2023-06-22T06:23:46;101050.09;;;20.39;97.89
43770;BME280;6597;52.218;9.882;2023-06-22T06:26:13;101047.00;;;20.45;97.21
43770;BME280;6597;52.218;9.882;2023-06-22T06:28:41;101041.16;;;20.53;95.07
43770;BME280;6597;52.218;9.882;2023-06-22T06:31:08;101031.84;;;20.59;94.39
43770;BME280;6597;52.218;9.882;2023-06-22T06:33:35;101044.63;;;20.66;93.55
43770;BME280;6597;52.218;9.882;2023-06-22T06:36:04;101040.88;;;20.69;92.37
43770;BME280;6597;52.218;9.882;2023-06-22T06:38:31;101042.13;;;20.76;92.80
43770;BME280;6597;52.218;9.882;2023-06-22T06:40:58;101041.47;;;20.85;93.01
43770;BME280;6597;52.218;9.882;2023-06-22T06:43:24;101045.41;;;20.92;91.79
43770;BME280;6597;52.218;9.882;2023-06-22T06:45:51;101043.97;;;20.99;91.39
43770;BME280;6597;52.218;9.882;2023-06-22T06:48:18;101050.31;;;21.09;91.34
43770;BME280;6597;52.218;9.882;2023-06-22T06:50:44;101046.13;;;21.18;89.41
43770;BME280;6597;52.218;9.882;2023-06-22T06:53:12;101044.72;;;21.25;89.37
43770;BME280;6597;52.218;9.882;2023-06-22T06:55:39;101045.84;;;21.34;89.41
43770;BME280;6597;52.218;9.882;2023-06-22T06:58:06;101042.34;;;21.44;88.51
43770;BME280;6597;52.218;9.882;2023-06-22T07:00:35;101039.75;;;21.56;86.03
43770;BME280;6597;52.218;9.882;2023-06-22T07:03:02;101034.91;;;21.61;85.49
43770;BME280;6597;52.218;9.882;2023-06-22T07:05:29;101046.56;;;21.71;84.62
43770;BME280;6597;52.218;9.882;2023-06-22T07:07:55;101041.75;;;21.87;84.42
43770;BME280;6597;52.218;9.882;2023-06-22T07:10:23;101039.69;;;22.02;84.72
43770;BME280;6597;52.218;9.882;2023-06-22T07:12:49;101046.28;;;22.09;82.96
43770;BME280;6597;52.218;9.882;2023-06-22T07:15:16;101037.69;;;22.17;82.79
43770;BME280;6597;52.218;9.882;2023-06-22T07:17:42;101039.38;;;22.18;81.74
43770;BME280;6597;52.218;9.882;2023-06-22T07:20:10;101039.25;;;22.30;81.12
43770;BME280;6597;52.218;9.882;2023-06-22T07:22:37;101040.47;;;22.49;80.36
43770;BME280;6597;52.218;9.882;2023-06-22T07:25:05;101027.91;;;22.60;80.09
43770;BME280;6597;52.218;9.882;2023-06-22T07:27:36;101035.56;;;22.65;79.65
43770;BME280;6597;52.218;9.882;2023-06-22T07:30:05;101031.78;;;22.67;79.01
43770;BME280;6597;52.218;9.882;2023-06-22T07:32:32;101030.44;;;22.73;78.72
43770;BME280;6597;52.218;9.882;2023-06-22T07:34:58;101032.00;;;22.76;78.01
43770;BME280;6597;52.218;9.882;2023-06-22T07:37:25;101030.06;;;22.78;77.81
43770;BME280;6597;52.218;9.882;2023-06-22T07:39:53;101028.00;;;22.70;78.31
43770;BME280;6597;52.218;9.882;2023-06-22T07:42:24;101031.91;;;22.66;78.84
43770;BME280;6597;52.218;9.882;2023-06-22T07:44:52;101029.13;;;22.56;78.83
43770;BME280;6597;52.218;9.882;2023-06-22T07:47:18;101038.13;;;22.55;79.30
43770;BME280;6597;52.218;9.882;2023-06-22T07:49:45;101040.81;;;22.55;78.83
43770;BME280;6597;52.218;9.882;2023-06-22T07:52:12;101044.47;;;22.54;79.77
43770;BME280;6597;52.218;9.882;2023-06-22T07:54:38;101039.84;;;22.56;79.05
43770;BME280;6597;52.218;9.882;2023-06-22T07:57:05;101036.19;;;22.57;78.55
43770;BME280;6597;52.218;9.882;2023-06-22T07:59:32;101033.25;;;22.60;79.93
43770;BME280;6597;52.218;9.882;2023-06-22T08:02:00;101034.72;;;22.64;80.33
43770;BME280;6597;52.218;9.882;2023-06-22T08:04:28;101037.38;;;22.64;79.34
43770;BME280;6597;52.218;9.882;2023-06-22T08:06:56;101031.44;;;22.61;78.59
43770;BME280;6597;52.218;9.882;2023-06-22T08:09:22;101032.28;;;22.61;79.18
43770;BME280;6597;52.218;9.882;2023-06-22T08:11:49;101033.13;;;22.62;79.52
43770;BME280;6597;52.218;9.882;2023-06-22T08:14:15;101033.25;;;22.60;80.06
43770;BME280;6597;52.218;9.882;2023-06-22T08:16:42;101034.97;;;22.61;79.94
43770;BME280;6597;52.218;9.882;2023-06-22T08:19:10;101033.97;;;22.62;79.75
43770;BME280;6597;52.218;9.882;2023-06-22T08:21:36;101040.78;;;22.66;79.74
43770;BME280;6597;52.218;9.882;2023-06-22T08:24:04;101042.47;;;22.79;78.69
43770;BME280;6597;52.218;9.882;2023-06-22T08:26:30;101032.63;;;22.79;77.93
43770;BME280;6597;52.218;9.882;2023-06-22T08:29:01;101040.44;;;22.82;78.26
43770;BME280;6597;52.218;9.882;2023-06-22T08:31:27;101046.38;;;22.86;78.25
43770;BME280;6597;52.218;9.882;2023-06-22T08:33:54;101031.75;;;22.90;78.39
43770;BME280;6597;52.218;9.882;2023-06-22T08:36:22;101037.13;;;22.90;79.43
43770;BME280;6597;52.218;9.882;2023-06-22T08:38:49;101043.56;;;22.87;80.41
43770;BME280;6597;52.218;9.882;2023-06-22T08:41:16;101044.44;;;22.88;80.38
43770;BME280;6597;52.218;9.882;2023-06-22T08:43:43;101038.59;;;22.83;80.80
43770;BME280;6597;52.218;9.882;2023-06-22T08:46:09;101038.34;;;22.86;81.34
43770;BME280;6597;52.218;9.882;2023-06-22T08:48:37;101042.59;;;22.88;80.87
43770;BME280;6597;52.218;9.882;2023-06-22T08:51:04;101043.72;;;22.86;80.35
43770;BME280;6597;52.218;9.882;2023-06-22T08:53:32;101034.22;;;22.82;80.24
43770;BME280;6597;52.218;9.882;2023-06-22T08:56:00;101031.56;;;22.82;81.00
43770;BME280;6597;52.218;9.882;2023-06-22T08:58:26;101028.47;;;22.75;80.78
43770;BME280;6597;52.218;9.882;2023-06-22T09:00:53;101023.88;;;22.77;81.72
43770;BME280;6597;52.218;9.882;2023-06-22T09:03:19;101032.53;;;22.81;81.33
43770;BME280;6597;52.218;9.882;2023-06-22T09:05:46;101017.53;;;22.78;80.38
43770;BME280;6597;52.218;9.882;2023-06-22T09:08:13;101015.38;;;22.83;81.22
43770;BME280;6597;52.218;9.882;2023-06-22T09:10:41;101015.50;;;22.82;80.15
43770;BME280;6597;52.218;9.882;2023-06-22T09:13:07;101006.22;;;22.86;80.77
43770;BME280;6597;52.218;9.882;2023-06-22T09:15:34;100984.31;;;22.92;79.43
43770;BME280;6597;52.218;9.882;2023-06-22T09:18:01;100980.13;;;22.99;79.12
43770;BME280;6597;52.218;9.882;2023-06-22T09:20:27;100979.34;;;23.08;78.38
43770;BME280;6597;52.218;9.882;2023-06-22T09:22:54;100982.25;;;23.16;79.34
43770;BME280;6597;52.218;9.882;2023-06-22T09:25:21;100977.28;;;23.33;78.86
43770;BME280;6597;52.218;9.882;2023-06-22T09:27:49;100981.53;;;23.35;79.10
43770;BME280;6597;52.218;9.882;2023-06-22T09:30:15;100978.47;;;23.40;77.89
43770;BME280;6597;52.218;9.882;2023-06-22T09:32:42;100986.34;;;23.41;78.44
43770;BME280;6597;52.218;9.882;2023-06-22T09:35:09;100991.34;;;23.46;77.19
43770;BME280;6597;52.218;9.882;2023-06-22T09:37:38;101002.69;;;23.38;78.09
43770;BME280;6597;52.218;9.882;2023-06-22T09:40:06;100989.16;;;23.40;79.23
43770;BME280;6597;52.218;9.882;2023-06-22T09:42:36;100986.44;;;23.51;78.95
43770;BME280;6597;52.218;9.882;2023-06-22T09:45:05;100986.94;;;23.56;77.81
43770;BME280;6597;52.218;9.882;2023-06-22T09:47:32;100984.69;;;23.61;78.30
43770;BME280;6597;52.218;9.882;2023-06-22T09:49:58;100975.72;;;23.72;77.74
43770;BME280;6597;52.218;9.882;2023-06-22T09:52:25;100978.59;;;23.80;77.74
43770;BME280;6597;52.218;9.882;2023-06-22T09:54:51;100963.69;;;23.87;76.88
43770;BME280;6597;52.218;9.882;2023-06-22T09:57:18;100968.09;;;23.98;76.87
43770;BME280;6597;52.218;9.882;2023-06-22T09:59:44;100962.81;;;24.17;77.43
43770;BME280;6597;52.218;9.882;2023-06-22T10:02:12;100955.38;;;24.30;75.16
43770;BME280;6597;52.218;9.882;2023-06-22T10:04:39;100954.97;;;24.35;74.26
43770;BME280;6597;52.218;9.882;2023-06-22T10:07:06;100960.19;;;24.36;74.79
43770;BME280;6597;52.218;9.882;2023-06-22T10:09:32;100961.75;;;24.39;75.58
43770;BME280;6597;52.218;9.882;2023-06-22T10:11:59;100964.19;;;24.42;74.94
43770;BME280;6597;52.218;9.882;2023-06-22T10:14:26;100965.88;;;24.43;74.78
43770;BME280;6597;52.218;9.882;2023-06-22T10:16:55;100964.34;;;24.40;75.42
43770;BME280;6597;52.218;9.882;2023-06-22T10:19:23;100966.16;;;24.40;75.85
43770;BME280;6597;52.218;9.882;2023-06-22T10:21:49;100962.22;;;24.44;76.14
43770;BME280;6597;52.218;9.882;2023-06-22T10:24:16;100968.16;;;24.57;76.45
43770;BME280;6597;52.218;9.882;2023-06-22T10:26:42;100963.22;;;24.62;75.67
43770;BME280;6597;52.218;9.882;2023-06-22T10:29:09;100964.34;;;24.69;76.53
43770;BME280;6597;52.218;9.882;2023-06-22T10:31:35;100962.81;;;24.76;76.03
43770;BME280;6597;52.218;9.882;2023-06-22T10:34:02;100961.97;;;24.86;75.47
43770;BME280;6597;52.218;9.882;2023-06-22T10:36:30;100952.78;;;24.88;74.99
43770;BME280;6597;52.218;9.882;2023-06-22T10:38:56;100941.63;;;24.83;75.03
43770;BME280;6597;52.218;9.882;2023-06-22T10:41:24;100939.38;;;24.78;75.88
43770;BME280;6597;52.218;9.882;2023-06-22T10:43:51;100936.69;;;24.78;76.33
43770;BME280;6597;52.218;9.882;2023-06-22T10:46:17;100931.03;;;24.72;75.86
43770;BME280;6597;52.218;9.882;2023-06-22T10:48:44;100923.94;;;24.71;75.79
43770;BME280;6597;52.218;9.882;2023-06-22T10:51:10;100923.94;;;24.71;76.94
43770;BME280;6597;52.218;9.882;2023-06-22T10:53:38;100917.72;;;24.70;76.24
43770;BME280;6597;52.218;9.882;2023-06-22T10:56:05;100915.03;;;24.70;76.27
43770;BME280;6597;52.218;9.882;2023-06-22T10:58:31;100915.63;;;24.74;77.21
43770;BME280;6597;52.218;9.882;2023-06-22T11:00:58;100917.31;;;24.75;76.87
43770;BME280;6597;52.218;9.882;2023-06-22T11:03:25;100917.75;;;24.80;76.53
43770;BME280;6597;52.218;9.882;2023-06-22T11:05:51;100924.66;;;24.82;77.23
43770;BME280;6597;52.218;9.882;2023-06-22T11:08:18;100911.94;;;24.94;76.36
43770;BME280;6597;52.218;9.882;2023-06-22T11:10:46;100916.78;;;25.10;74.70
43770;BME280;6597;52.218;9.882;2023-06-22T11:13:12;100914.63;;;25.23;74.88
43770;BME280;6597;52.218;9.882;2023-06-22T11:15:39;100903.13;;;25.40;74.31
43770;BME280;6597;52.218;9.882;2023-06-22T11:18:06;100906.00;;;25.76;73.62
43770;BME280;6597;52.218;9.882;2023-06-22T11:20:33;100901.03;;;26.09;72.57
43770;BME280;6597;52.218;9.882;2023-06-22T11:23:04;100903.19;;;26.50;71.76
43770;BME280;6597;52.218;9.882;2023-06-22T11:25:30;100893.16;;;26.96;69.77
43770;BME280;6597;52.218;9.882;2023-06-22T11:27:58;100885.31;;;27.28;68.26
43770;BME280;6597;52.218;9.882;2023-06-22T11:30:25;100877.03;;;27.48;67.71
43770;BME280;6597;52.218;9.882;2023-06-22T11:32:51;100871.44;;;27.67;66.15
43770;BME280;6597;52.218;9.882;2023-06-22T11:35:18;100873.16;;;27.76;65.31
43770;BME280;6597;52.218;9.882;2023-06-22T11:37:44;100863.44;;;27.92;63.88
43770;BME280;6597;52.218;9.882;2023-06-22T11:40:11;100852.88;;;28.06;63.78
43770;BME280;6597;52.218;9.882;2023-06-22T11:42:38;100849.66;;;28.03;62.77
43770;BME280;6597;52.218;9.882;2023-06-22T11:45:07;100844.69;;;27.82;64.66
43770;BME280;6597;52.218;9.882;2023-06-22T11:47:33;100837.94;;;27.86;65.64
43770;BME280;6597;52.218;9.882;2023-06-22T11:50:00;100840.72;;;28.10;64.97
43770;BME280;6597;52.218;9.882;2023-06-22T11:52:27;100827.97;;;28.37;64.02
43770;BME280;6597;52.218;9.882;2023-06-22T11:54:53;100817.69;;;28.48;63.19
43770;BME280;6597;52.218;9.882;2023-06-22T11:57:20;100819.88;;;28.45;63.53
43770;BME280;6597;52.218;9.882;2023-06-22T11:59:46;100810.44;;;28.41;62.54
43770;BME280;6597;52.218;9.882;2023-06-22T12:02:14;100815.66;;;28.59;60.86
43770;BME280;6597;52.218;9.882;2023-06-22T12:04:40;100802.84;;;28.85;60.03
43770;BME280;6597;52.218;9.882;2023-06-22T12:07:07;100795.41;;;28.95;60.13
43770;BME280;6597;52.218;9.882;2023-06-22T12:09:34;100805.00;;;28.81;60.33
43770;BME280;6597;52.218;9.882;2023-06-22T12:12:00;100798.97;;;28.63;59.84
43770;BME280;6597;52.218;9.882;2023-06-22T12:14:27;100799.78;;;28.56;59.70
43770;BME280;6597;52.218;9.882;2023-06-22T12:16:53;100786.97;;;28.66;59.49
43770;BME280;6597;52.218;9.882;2023-06-22T12:19:21;100784.28;;;28.66;58.26
43770;BME280;6597;52.218;9.882;2023-06-22T12:21:47;100776.81;;;28.60;58.22
43770;BME280;6597;52.218;9.882;2023-06-22T12:24:14;100775.31;;;28.57;58.67
43770;BME280;6597;52.218;9.882;2023-06-22T12:26:40;100771.13;;;28.63;59.31
43770;BME280;6597;52.218;9.882;2023-06-22T12:29:08;100765.88;;;28.69;59.33
43770;BME280;6597;52.218;9.882;2023-06-22T12:31:35;100769.09;;;28.65;58.70
43770;BME280;6597;52.218;9.882;2023-06-22T12:34:02;100772.47;;;28.42;58.66
43770;BME280;6597;52.218;9.882;2023-06-22T12:36:30;100765.84;;;28.29;60.63
43770;BME280;6597;52.218;9.882;2023-06-22T12:38:56;100757.91;;;28.11;59.85
43770;BME280;6597;52.218;9.882;2023-06-22T12:41:23;100768.19;;;27.99;61.57
43770;BME280;6597;52.218;9.882;2023-06-22T12:43:49;100764.13;;;28.03;62.23
43770;BME280;6597;52.218;9.882;2023-06-22T12:46:16;100759.25;;;28.07;61.28
43770;BME280;6597;52.218;9.882;2023-06-22T12:48:43;100755.72;;;28.06;61.95
43770;BME280;6597;52.218;9.882;2023-06-22T12:51:09;100750.81;;;28.10;62.40
43770;BME280;6597;52.218;9.882;2023-06-22T12:53:37;100746.25;;;28.10;61.75
43770;BME280;6597;52.218;9.882;2023-06-22T12:56:04;100745.59;;;28.16;62.20